createdAt,value
2023-04-09T00:00:00.976Z,101203.44
2023-04-09T00:05:02.594Z,101196.63
2023-04-09T00:10:04.483Z,101203.63
2023-04-09T00:15:08.382Z,101200.28
2023-04-09T00:20:10.524Z,101205.28
2023-04-09T00:25:12.223Z,101212.06
2023-04-09T00:30:13.958Z,101201.69
2023-04-09T00:35:17.421Z,101186.91
2023-04-09T00:40:19.312Z,101192.63
2023-04-09T00:45:21.159Z,101193.56
2023-04-09T00:50:22.843Z,101193.75
2023-04-09T00:55:25.320Z,101195.03
2023-04-09T01:00:28.003Z,101182.72
2023-04-09T01:05:54.885Z,101193.00
2023-04-09T01:11:24.359Z,101212.88
2023-04-09T01:16:29.878Z,101205.00
2023-04-09T01:21:32.695Z,101205.53
2023-04-09T01:27:08.627Z,101192.31
2023-04-09T01:32:23.908Z,101217.56
2023-04-09T01:37:26.335Z,101222.31
2023-04-09T01:42:28.886Z,101203.56
2023-04-09T01:47:30.965Z,101195.06
2023-04-09T01:52:32.651Z,101215.31
2023-04-09T01:57:34.332Z,101216.31
2023-04-09T02:02:45.037Z,101213.59
2023-04-09T02:07:52.845Z,101216.25
2023-04-09T02:12:55.788Z,101220.19
2023-04-09T02:17:57.576Z,101225.84
2023-04-09T02:22:59.251Z,101207.22
2023-04-09T02:28:01.186Z,101226.19
2023-04-09T02:33:02.849Z,101219.06
2023-04-09T02:38:04.874Z,101221.13
2023-04-09T02:43:06.574Z,101226.59
2023-04-09T02:48:09.021Z,101220.97
2023-04-09T02:53:10.951Z,101220.03
2023-04-09T02:58:12.701Z,101237.41
2023-04-09T03:03:14.546Z,101232.88
2023-04-09T03:08:16.329Z,101237.56
2023-04-09T03:13:18.028Z,101227.31
2023-04-09T03:18:19.976Z,101223.22
2023-04-09T03:23:21.607Z,101217.91
2023-04-09T03:28:23.363Z,101216.72
2023-04-09T03:33:28.322Z,101214.72
2023-04-09T03:38:32.485Z,101227.31
2023-04-09T03:43:37.715Z,101229.53
2023-04-09T03:48:41.347Z,101229.03
2023-04-09T03:53:43.197Z,101226.47
2023-04-09T03:58:44.917Z,101219.03
2023-04-09T04:03:49.527Z,101227.47
2023-04-09T04:08:57.672Z,101224.22
2023-04-09T04:14:08.406Z,101227.97
2023-04-09T04:19:10.403Z,101224.38
2023-04-09T04:24:18.005Z,101227.47
2023-04-09T04:29:20.172Z,101226.09
2023-04-09T04:34:27.423Z,101232.16
2023-04-09T04:39:36.474Z,101237.47
2023-04-09T04:44:44.535Z,101240.97
2023-04-09T04:49:56.195Z,101243.03
2023-04-09T04:54:58.415Z,101244.56
2023-04-09T05:00:00.292Z,101237.97
2023-04-09T05:05:02.251Z,101248.50
2023-04-09T05:10:11.087Z,101258.84
2023-04-09T05:15:16.229Z,101250.69
2023-04-09T05:20:17.931Z,101245.47
2023-04-09T05:25:45.439Z,101243.97
2023-04-09T05:30:55.794Z,101246.50
2023-04-09T05:35:58.442Z,101258.22
2023-04-09T05:41:00.660Z,101249.75
2023-04-09T05:46:02.483Z,101267.06
2023-04-09T05:51:04.266Z,101271.75
2023-04-09T05:56:14.446Z,101264.34
2023-04-09T06:01:22.501Z,101265.56
2023-04-09T06:06:24.758Z,101261.38
2023-04-09T06:11:27.088Z,101245.66
2023-04-09T06:16:28.797Z,101249.44
2023-04-09T06:21:31.230Z,101253.22
2023-04-09T06:26:32.815Z,101255.84
2023-04-09T06:31:34.622Z,101255.56
2023-04-09T06:36:37.622Z,101253.00
2023-04-09T06:41:39.257Z,101250.81
2023-04-09T06:46:52.290Z,101265.81
2023-04-09T06:51:53.996Z,101266.38
2023-04-09T06:56:55.881Z,101272.56
2023-04-09T07:01:57.710Z,101272.88
2023-04-09T07:07:00.120Z,101274.94
2023-04-09T07:12:01.749Z,101265.22
2023-04-09T07:17:03.346Z,101276.28
2023-04-09T07:22:04.955Z,101282.06
2023-04-09T07:27:06.768Z,101276.19
2023-04-09T07:32:08.357Z,101282.03
2023-04-09T07:37:09.945Z,101286.22
2023-04-09T07:42:11.605Z,101271.50
2023-04-09T07:47:13.335Z,101276.63
2023-04-09T07:52:15.033Z,101274.44
2023-04-09T07:57:17.011Z,101275.84
2023-04-09T08:02:18.747Z,101278.81
2023-04-09T08:07:20.669Z,101286.00
2023-04-09T08:12:22.275Z,101264.50
2023-04-09T08:17:24.567Z,101269.09
2023-04-09T08:22:26.205Z,101267.00
2023-04-09T08:27:27.830Z,101272.00
2023-04-09T08:32:29.589Z,101276.03
2023-04-09T08:37:32.388Z,101285.00
2023-04-09T08:42:35.654Z,101286.50
2023-04-09T08:47:38.017Z,101280.09
2023-04-09T08:52:40.423Z,101286.59
2023-04-09T08:57:42.277Z,101273.41
2023-04-09T09:03:10.155Z,101276.00
2023-04-09T09:08:14.310Z,101260.31
2023-04-09T09:13:19.533Z,101282.34
2023-04-09T09:18:42.074Z,101276.84
2023-04-09T09:23:44.483Z,101268.94
2023-04-09T09:28:47.075Z,101277.19
2023-04-09T09:33:50.533Z,101264.38
2023-04-09T09:38:57.467Z,101266.84
2023-04-09T09:43:59.148Z,101254.81
2023-04-09T09:49:00.806Z,101247.50
2023-04-09T09:54:02.634Z,101252.91
2023-04-09T09:59:07.465Z,101243.56
2023-04-09T10:04:13.583Z,101242.31
2023-04-09T10:09:15.620Z,101240.56
2023-04-09T10:14:17.955Z,101236.56
2023-04-09T10:19:19.987Z,101241.34
2023-04-09T10:24:22.021Z,101233.63
2023-04-09T10:29:29.562Z,101225.81
2023-04-09T10:34:35.582Z,101227.66
2023-04-09T10:39:43.856Z,101204.75
2023-04-09T10:44:45.956Z,101213.56
2023-04-09T10:49:49.325Z,101202.19
2023-04-09T10:54:51.129Z,101202.69
2023-04-09T10:59:54.532Z,101206.28
2023-04-09T11:05:07.357Z,101192.66
2023-04-09T11:10:09.425Z,101197.47
2023-04-09T11:15:18.480Z,101200.19
2023-04-09T11:20:22.270Z,101196.84
2023-04-09T11:25:28.394Z,101205.34
2023-04-09T11:30:31.068Z,101205.06
2023-04-09T11:35:35.230Z,101204.72
2023-04-09T11:40:43.569Z,101199.31
2023-04-09T11:45:48.070Z,101190.63
2023-04-09T11:50:50.708Z,101194.78
2023-04-09T11:55:53.215Z,101187.31
2023-04-09T12:00:58.743Z,101182.63
2023-04-09T12:06:02.134Z,101182.63
2023-04-09T12:11:15.449Z,101189.56
2023-04-09T12:16:21.029Z,101180.66
2023-04-09T12:21:27.096Z,101186.84
2023-04-09T12:26:28.678Z,101193.50
2023-04-09T12:31:30.289Z,101193.94
2023-04-09T12:36:31.884Z,101195.72
2023-04-09T12:41:33.513Z,101186.41
2023-04-09T12:46:35.145Z,101186.13
2023-04-09T12:51:36.825Z,101175.81
2023-04-09T12:56:38.450Z,101179.53
2023-04-09T13:01:42.117Z,101166.69
2023-04-09T13:06:45.000Z,101163.59
2023-04-09T13:11:46.595Z,101157.66
2023-04-09T13:16:48.317Z,101161.75
2023-04-09T13:21:49.959Z,101157.97
2023-04-09T13:26:51.566Z,101143.69
2023-04-09T13:31:53.164Z,101148.06
2023-04-09T13:36:54.749Z,101132.50
2023-04-09T13:41:56.742Z,101128.38
2023-04-09T13:46:58.400Z,101132.47
2023-04-09T13:52:00.007Z,101121.03
2023-04-09T13:57:01.812Z,101127.78
2023-04-09T14:02:03.887Z,101130.25
2023-04-09T14:07:06.182Z,101118.06
2023-04-09T14:12:07.778Z,101115.22
2023-04-09T14:17:09.375Z,101113.56
2023-04-09T14:22:11.516Z,101110.44
2023-04-09T14:27:13.151Z,101121.44
2023-04-09T14:32:14.741Z,101107.06
2023-04-09T14:37:17.237Z,101115.00
2023-04-09T14:42:19.106Z,101117.81
2023-04-09T14:47:20.738Z,101113.44
2023-04-09T14:52:22.375Z,101107.63
2023-04-09T14:57:24.116Z,101096.03
2023-04-09T15:02:26.010Z,101096.19
2023-04-09T15:07:28.661Z,101102.28
2023-04-09T15:12:33.135Z,101082.50
2023-04-09T15:17:34.906Z,101086.44
2023-04-09T15:22:36.500Z,101083.59
2023-04-09T15:27:38.141Z,101084.44
2023-04-09T15:32:39.794Z,101082.19
2023-04-09T15:37:41.700Z,101086.16
2023-04-09T15:42:43.326Z,101078.53
2023-04-09T15:47:45.933Z,101075.13
2023-04-09T15:52:48.759Z,101078.53
2023-04-09T15:57:50.370Z,101081.94
2023-04-09T16:02:53.075Z,101084.44
2023-04-09T16:07:54.935Z,101085.84
2023-04-09T16:12:57.123Z,101088.41
2023-04-09T16:17:58.752Z,101079.66
2023-04-09T16:23:01.097Z,101081.63
2023-04-09T16:28:03.019Z,101081.22
2023-04-09T16:33:04.639Z,101081.94
2023-04-09T16:38:06.900Z,101084.88
2023-04-09T16:43:08.523Z,101080.91
2023-04-09T16:48:12.550Z,101090.13
2023-04-09T16:53:14.460Z,101080.06
2023-04-09T16:58:16.305Z,101080.06
2023-04-09T17:03:18.001Z,101080.50
2023-04-09T17:08:24.285Z,101088.41
2023-04-09T17:13:26.166Z,101091.81
2023-04-09T17:18:27.880Z,101091.22
2023-04-09T17:23:29.691Z,101103.69
2023-04-09T17:28:31.295Z,101098.44
2023-04-09T17:33:32.868Z,101092.38
2023-04-09T17:38:34.544Z,101104.22
2023-04-09T17:43:36.757Z,101101.41
2023-04-09T17:48:38.594Z,101102.94
2023-04-09T17:53:40.364Z,101102.25
2023-04-09T17:58:42.083Z,101102.50
2023-04-09T18:03:45.574Z,101105.91
2023-04-09T18:08:48.126Z,101108.72
2023-04-09T18:13:50.968Z,101113.25
2023-04-09T18:18:52.985Z,101114.09
2023-04-09T18:23:54.744Z,101113.25
2023-04-09T18:28:59.074Z,101116.22
2023-04-09T18:34:02.314Z,101135.28
2023-04-09T18:39:05.043Z,101134.56
2023-04-09T18:44:07.180Z,101130.69
2023-04-09T18:49:09.773Z,101140.84
2023-04-09T18:54:11.362Z,101150.03
2023-04-09T18:59:12.970Z,101146.47
2023-04-09T19:04:14.838Z,101145.44
2023-04-09T19:09:16.579Z,101142.47
2023-04-09T19:14:18.246Z,101132.00
2023-04-09T19:19:20.119Z,101130.84
2023-04-09T19:24:21.766Z,101137.31
2023-04-09T19:29:23.438Z,101134.50
2023-04-09T19:34:25.034Z,101137.31
2023-04-09T19:39:27.216Z,101138.28
2023-04-09T19:44:28.853Z,101133.34
2023-04-09T19:49:30.446Z,101132.72
2023-04-09T19:54:33.331Z,101131.53
2023-04-09T19:59:37.392Z,101120.13
2023-04-09T20:04:40.369Z,101130.25
2023-04-09T20:09:42.421Z,101130.19
2023-04-09T20:14:44.544Z,101132.81
2023-04-09T20:19:46.560Z,101141.63
2023-04-09T20:24:48.522Z,101141.22
2023-04-09T20:29:50.167Z,101144.03
2023-04-09T20:34:51.916Z,101139.94
2023-04-09T20:39:53.571Z,101146.31
2023-04-09T20:44:55.490Z,101148.88
2023-04-09T20:49:59.854Z,101142.69
2023-04-09T20:55:01.649Z,101125.69
2023-04-09T21:00:03.426Z,101139.34
2023-04-09T21:05:21.346Z,101144.03
2023-04-09T21:10:24.843Z,101148.22
2023-04-09T21:15:26.441Z,101150.69
2023-04-09T21:20:28.274Z,101143.88
2023-04-09T21:25:29.909Z,101144.25
2023-04-09T21:30:32.301Z,101147.78
2023-04-09T21:35:35.420Z,101157.31
2023-04-09T21:40:37.279Z,101154.41
2023-04-09T21:45:40.115Z,101155.53
2023-04-09T21:50:41.743Z,101155.72
2023-04-09T21:55:43.359Z,101148.38
2023-04-09T22:00:45.002Z,101147.69
2023-04-09T22:05:46.677Z,101147.91
2023-04-09T22:10:48.264Z,101150.13
2023-04-09T22:15:49.923Z,101141.03
2023-04-09T22:20:51.568Z,101145.03
2023-04-09T22:26:03.492Z,101140.44
2023-04-09T22:31:05.853Z,101156.31
2023-04-09T22:36:08.141Z,101152.81
2023-04-09T22:41:09.778Z,101146.47
2023-04-09T22:46:11.905Z,101149.19
2023-04-09T22:51:14.470Z,101155.59
2023-04-09T22:56:16.188Z,101144.69
2023-04-09T23:01:22.006Z,101145.75
2023-04-09T23:06:25.141Z,101157.63
2023-04-09T23:11:27.313Z,101154.72
2023-04-09T23:16:29.028Z,101152.88
2023-04-09T23:21:31.702Z,101145.22
2023-04-09T23:26:33.337Z,101134.03
2023-04-09T23:31:34.997Z,101133.44
2023-04-09T23:36:36.737Z,101127.31
2023-04-09T23:41:39.581Z,101129.84
2023-04-09T23:46:41.669Z,101139.69
2023-04-09T23:51:43.328Z,101145.38
2023-04-09T23:56:44.951Z,101142.81
